一週港股52週新低

創52週新高的香港股票是指一隻香港股票的股價是52週內最高。而一週港股52週新高記錄了一週內創了52週新高的股票。
(由 10-06-2019 至 14-06-2019,共五個交易日)

想了解更多關於甚麼是香港52週股票?請到香港52週股票瀏覽。

一週港股52週新低
(共有 283 個結果)
佔主版股票的 14.003%

最後更新: 14-06-2019 16:15
(完整更新)

最後更新: 14-06-2019 16:15
(完整更新)

排名 編號 名稱 前收市價 收市價 升跌 升跌% 成交量 成交額 觸發日期
1 1305 WAI CHI HOLD 偉志控股     1.040 0.800 -0.240 -23.077 1.38百萬1.18百萬14-06-2019
2 996 CARNIVAL GROUP 嘉年華國際    0.028 0.024 -0.004 -14.286 5.85億1.46千萬14-06-2019
3 706 BEAUTI C HOLD 美麗中國控股   0.024 0.021 -0.003 -12.500 7.98百萬15.96萬14-06-2019
4 273 MASON GP HOLD 茂宸集團     0.097 0.087 -0.010 -10.309 2.79千萬2.49百萬14-06-2019
5 23 BANK OF E ASIA 東亞銀行     24.150 21.950 -2.200 -9.110 8.15百萬1.8億14-06-2019
6 378 FDG KINETIC 五龍動力     0.089 0.082 -0.007 -7.865 40.8萬3.47萬14-06-2019
7 928 LIFE HEALTHCARE蓮和醫療     0.026 0.024 -0.002 -7.692 5.26百萬13.12萬14-06-2019
8 1037 MAXNERVA TECH 雲智匯科技    0.540 0.500 -0.040 -7.407 45.8萬23.19萬14-06-2019
9 1938 CHU KONG PIPE 珠江鋼管     0.580 0.540 -0.040 -6.897 1.8萬9.78千13-06-2019
10 1867 LKS HOLDING 樂嘉思控股    0.238 0.222 -0.016 -6.723 68萬15.37萬14-06-2019
11 2098 ZALL SMARTCOM 卓爾智聯     1.640 1.530 -0.110 -6.707 9.95百萬1.54千萬14-06-2019
12 2203 BRAINHOLE TECH 腦洞科技     0.630 0.590 -0.040 -6.349 59萬34.55萬14-06-2019
13 3689 KANGHUA HEALTH 康華醫療     5.700 5.350 -0.350 -6.140 39.57萬2.17百萬14-06-2019
14 729 FDG EVEHICLES 五龍電動車    0.033 0.031 -0.002 -6.061 6.93千萬2.15百萬14-06-2019
15 3330 LINGBAO GOLD 靈寶黃金     1.484 1.400 -0.084 -5.660 5.23百萬6.88百萬14-06-2019
16 1365 RUNDONG AUTO 潤東汽車     0.710 0.670 -0.040 -5.634 25.1萬17.14萬10-06-2019
17 6898 CHINA ALUMCAN 中國鋁罐     0.550 0.520 -0.030 -5.455 11.8萬6.08萬14-06-2019
18 532 WKK INTL (HOLD)         0.930 0.880 -0.050 -5.376 2.2萬2.01萬13-06-2019
19 1223 SYMPHONY HOLD 新灃集團     0.970 0.920 -0.050 -5.155 3.47百萬3.2百萬14-06-2019
20 1216 ZYBANK 中原銀行     2.000 1.900 -0.100 -5.000 1.58千萬2.93千萬13-06-2019

本網竭力提供準確而可靠的資料,但並不保證資料絕對無誤,資料如有錯漏而令閣下蒙受損失,本網概不負責。

圖表設定

(不計算 SMA 最多只可同時顯示五種技術分析)

  • %K
  • %D
  • %K
  • %D